RPUQ weather

Vigan Airport
Vigan City, Ilocos Sur Province, Philippines

Public forecast

Using degrees Celsius for public forecast. Weather courtesy of forecast.io.

METAR (pilot weather report)

Report is more than 2 hours old.

Closest report is Laoag International Airport, 38.7 nm (71.7 km) NNE. Retrieved 2019/06/20 12:00 UTC (2 hours ago):

RPLI 201200Z 02008KT 9999 FEW018 SCT290 30/26 Q1008 NOSIG RMK A2977

TAF (pilot weather forecast)

Closest forecast is Laoag International Airport, 38.7 nm (71.7 km) NNE. Retrieved 2019/06/20 12:00 UTC (2 hours ago):

TAF RPLI 201100Z 2012/2112 32006KT 9999 FEW018 SCT280 TEMPO 2012/2016 VRB03KT VCTS FEW017CB SCT018 BKN080